Terminal Aerodrome Forecast
Issued by NWS Wilmington, OH

Current Version | Previous Version | Graphics & Text | Print | Product List | Glossary On
Versions: 1 2 3 4 5 6 7 8 9 10 11 12 13 14 15 16 17 18 19 20 21 22 23 24 25
000
FTUS41 KILN 150529
TAFCVG
TAF
KCVG 150529Z 1506/1612 24005KT P6SM SCT060 BKN200
     FM151300 25005KT P6SM BKN040
     FM152300 26005KT P6SM SCT200
     FM160700 VRB03KT 5SM BR SCT200=

USA.gov is the U.S. government's official web portal to all federal, state and local government web resources and services.